sensor_id;sensor_type;location;lat;lon;timestamp;pressure;altitude;pressure_sealevel;temperature;humidity
21902;BME280;11115;46.038;14.612;2022-10-13T00:02:49;99184.13;;;9.62;100.00
21902;BME280;11115;46.038;14.612;2022-10-13T00:05:21;99172.84;;;9.58;100.00
21902;BME280;11115;46.038;14.612;2022-10-13T00:07:52;99180.00;;;9.10;100.00
21902;BME280;11115;46.038;14.612;2022-10-13T00:10:26;99147.69;;;9.16;100.00
21902;BME280;11115;46.038;14.612;2022-10-13T00:12:59;99169.63;;;9.41;100.00
21902;BME280;11115;46.038;14.612;2022-10-13T00:15:30;99187.09;;;9.31;100.00
21902;BME280;11115;46.038;14.612;2022-10-13T00:18:02;99181.84;;;9.30;100.00
21902;BME280;11115;46.038;14.612;2022-10-13T00:20:56;99175.09;;;8.87;100.00
21902;BME280;11115;46.038;14.612;2022-10-13T00:23:32;99183.88;;;9.04;100.00
21902;BME280;11115;46.038;14.612;2022-10-13T00:26:09;99185.97;;;9.32;100.00
21902;BME280;11115;46.038;14.612;2022-10-13T00:28:42;99193.66;;;9.46;100.00
21902;BME280;11115;46.038;14.612;2022-10-13T00:31:25;99187.47;;;9.04;100.00
21902;BME280;11115;46.038;14.612;2022-10-13T00:34:04;99188.88;;;9.07;100.00
21902;BME280;11115;46.038;14.612;2022-10-13T00:36:34;99183.28;;;9.17;100.00
21902;BME280;11115;46.038;14.612;2022-10-13T00:39:06;99186.56;;;9.24;100.00
21902;BME280;11115;46.038;14.612;2022-10-13T00:41:45;99180.78;;;9.26;100.00
21902;BME280;11115;46.038;14.612;2022-10-13T00:47:38;99166.28;;;9.44;100.00
21902;BME280;11115;46.038;14.612;2022-10-13T00:50:23;99156.16;;;9.34;100.00
21902;BME280;11115;46.038;14.612;2022-10-13T00:52:57;99159.56;;;9.11;100.00
21902;BME280;11115;46.038;14.612;2022-10-13T00:55:34;99159.88;;;9.09;100.00
21902;BME280;11115;46.038;14.612;2022-10-13T00:58:04;99168.44;;;9.08;100.00
21902;BME280;11115;46.038;14.612;2022-10-13T01:00:50;99167.28;;;9.14;100.00
21902;BME280;11115;46.038;14.612;2022-10-13T01:03:20;99149.41;;;8.96;100.00
21902;BME280;11115;46.038;14.612;2022-10-13T01:05:56;99162.28;;;9.21;100.00
21902;BME280;11115;46.038;14.612;2022-10-13T01:08:28;99150.13;;;9.27;100.00
21902;BME280;11115;46.038;14.612;2022-10-13T01:11:22;99153.41;;;9.29;100.00
21902;BME280;11115;46.038;14.612;2022-10-13T01:35:13;99146.81;;;9.69;100.00
21902;BME280;11115;46.038;14.612;2022-10-13T01:38:33;99145.31;;;9.82;100.00
21902;BME280;11115;46.038;14.612;2022-10-13T01:41:37;99145.06;;;9.84;100.00
21902;BME280;11115;46.038;14.612;2022-10-13T01:44:32;99140.00;;;9.91;100.00
21902;BME280;11115;46.038;14.612;2022-10-13T01:47:04;99140.63;;;9.83;100.00
21902;BME280;11115;46.038;14.612;2022-10-13T01:49:53;99132.59;;;9.86;100.00
21902;BME280;11115;46.038;14.612;2022-10-13T01:52:34;99136.97;;;9.92;100.00
21902;BME280;11115;46.038;14.612;2022-10-13T01:55:10;99139.69;;;9.97;100.00
21902;BME280;11115;46.038;14.612;2022-10-13T01:57:45;99138.13;;;10.15;100.00
21902;BME280;11115;46.038;14.612;2022-10-13T02:00:24;99139.50;;;10.23;100.00
21902;BME280;11115;46.038;14.612;2022-10-13T02:03:24;99138.69;;;10.17;100.00
21902;BME280;11115;46.038;14.612;2022-10-13T02:06:15;99139.84;;;10.11;100.00
21902;BME280;11115;46.038;14.612;2022-10-13T02:11:47;99128.84;;;10.06;100.00
21902;BME280;11115;46.038;14.612;2022-10-13T02:14:29;99136.84;;;10.08;100.00
21902;BME280;11115;46.038;14.612;2022-10-13T02:17:01;99135.84;;;10.27;100.00
21902;BME280;11115;46.038;14.612;2022-10-13T02:19:37;99131.22;;;10.23;100.00
21902;BME280;11115;46.038;14.612;2022-10-13T02:22:10;99117.50;;;10.08;100.00
21902;BME280;11115;46.038;14.612;2022-10-13T02:24:49;99134.03;;;10.13;100.00
21902;BME280;11115;46.038;14.612;2022-10-13T02:27:34;99126.78;;;10.17;100.00
21902;BME280;11115;46.038;14.612;2022-10-13T02:30:06;99125.09;;;10.26;100.00
21902;BME280;11115;46.038;14.612;2022-10-13T02:32:37;99126.69;;;10.32;100.00
21902;BME280;11115;46.038;14.612;2022-10-13T02:35:08;99106.59;;;10.21;100.00
21902;BME280;11115;46.038;14.612;2022-10-13T02:37:41;99121.44;;;10.30;100.00
21902;BME280;11115;46.038;14.612;2022-10-13T02:40:14;99115.78;;;10.41;100.00
21902;BME280;11115;46.038;14.612;2022-10-13T02:42:45;99119.16;;;10.38;100.00
21902;BME280;11115;46.038;14.612;2022-10-13T02:45:22;99113.38;;;10.34;100.00
21902;BME280;11115;46.038;14.612;2022-10-13T02:47:55;99099.13;;;10.22;100.00
21902;BME280;11115;46.038;14.612;2022-10-13T02:50:39;99123.19;;;10.16;100.00
21902;BME280;11115;46.038;14.612;2022-10-13T02:53:10;99110.59;;;10.05;100.00
21902;BME280;11115;46.038;14.612;2022-10-13T02:55:43;99117.78;;;10.06;100.00
21902;BME280;11115;46.038;14.612;2022-10-13T02:58:11;99122.66;;;10.14;100.00
21902;BME280;11115;46.038;14.612;2022-10-13T03:00:43;99116.91;;;10.11;100.00
21902;BME280;11115;46.038;14.612;2022-10-13T03:03:17;99119.63;;;10.16;100.00
21902;BME280;11115;46.038;14.612;2022-10-13T03:05:53;99125.34;;;10.29;100.00
21902;BME280;11115;46.038;14.612;2022-10-13T03:08:27;99124.22;;;10.30;100.00
21902;BME280;11115;46.038;14.612;2022-10-13T03:11:11;99127.03;;;10.25;100.00
21902;BME280;11115;46.038;14.612;2022-10-13T03:13:49;99122.63;;;10.24;100.00
21902;BME280;11115;46.038;14.612;2022-10-13T03:16:20;99126.56;;;10.13;100.00
21902;BME280;11115;46.038;14.612;2022-10-13T03:18:53;99118.59;;;10.07;100.00
21902;BME280;11115;46.038;14.612;2022-10-13T03:21:37;99122.97;;;10.13;100.00
21902;BME280;11115;46.038;14.612;2022-10-13T03:24:08;99120.50;;;10.11;100.00
21902;BME280;11115;46.038;14.612;2022-10-13T03:26:39;99127.63;;;10.17;100.00
21902;BME280;11115;46.038;14.612;2022-10-13T03:29:16;99111.03;;;10.17;100.00
21902;BME280;11115;46.038;14.612;2022-10-13T03:32:00;99129.78;;;10.20;100.00
21902;BME280;11115;46.038;14.612;2022-10-13T03:34:32;99122.91;;;10.23;100.00
21902;BME280;11115;46.038;14.612;2022-10-13T03:37:04;99133.97;;;10.23;100.00
21902;BME280;11115;46.038;14.612;2022-10-13T03:39:42;99134.69;;;10.33;100.00
21902;BME280;11115;46.038;14.612;2022-10-13T03:42:11;99069.59;;;9.83;100.00
21902;BME280;11115;46.038;14.612;2022-10-13T03:44:44;99131.97;;;10.28;100.00
21902;BME280;11115;46.038;14.612;2022-10-13T03:47:22;99128.09;;;10.29;100.00
21902;BME280;11115;46.038;14.612;2022-10-13T03:49:59;99128.81;;;10.40;100.00
21902;BME280;11115;46.038;14.612;2022-10-13T03:52:28;99125.63;;;10.28;100.00
21902;BME280;11115;46.038;14.612;2022-10-13T03:55:06;99123.63;;;10.33;100.00
21902;BME280;11115;46.038;14.612;2022-10-13T03:57:39;99119.75;;;10.34;100.00
21902;BME280;11115;46.038;14.612;2022-10-13T04:00:15;99116.09;;;10.39;100.00
21902;BME280;11115;46.038;14.612;2022-10-13T04:02:48;99119.16;;;10.38;100.00
21902;BME280;11115;46.038;14.612;2022-10-13T04:05:29;99114.28;;;10.29;100.00
21902;BME280;11115;46.038;14.612;2022-10-13T04:08:09;99117.31;;;10.28;100.00
21902;BME280;11115;46.038;14.612;2022-10-13T04:10:43;99117.25;;;10.33;100.00
21902;BME280;11115;46.038;14.612;2022-10-13T04:13:15;99121.97;;;10.32;100.00
21902;BME280;11115;46.038;14.612;2022-10-13T04:15:51;99128.91;;;10.30;100.00
21902;BME280;11115;46.038;14.612;2022-10-13T04:18:37;99130.75;;;10.40;100.00
21902;BME280;11115;46.038;14.612;2022-10-13T04:21:13;99126.84;;;10.41;100.00
21902;BME280;11115;46.038;14.612;2022-10-13T04:23:45;99118.28;;;10.42;100.00
21902;BME280;11115;46.038;14.612;2022-10-13T04:26:20;99125.22;;;10.40;100.00
21902;BME280;11115;46.038;14.612;2022-10-13T04:29:03;99119.75;;;10.34;100.00
21902;BME280;11115;46.038;14.612;2022-10-13T04:31:37;99124.56;;;10.24;100.00
21902;BME280;11115;46.038;14.612;2022-10-13T04:34:18;99119.31;;;10.22;100.00
21902;BME280;11115;46.038;14.612;2022-10-13T04:36:52;99111.66;;;10.09;100.00
21902;BME280;11115;46.038;14.612;2022-10-13T04:39:26;99101.63;;;10.18;100.00
21902;BME280;11115;46.038;14.612;2022-10-13T04:41:57;99113.19;;;10.20;100.00
21902;BME280;11115;46.038;14.612;2022-10-13T04:44:38;99107.84;;;10.34;100.00
21902;BME280;11115;46.038;14.612;2022-10-13T04:47:18;99105.63;;;10.36;100.00
21902;BME280;11115;46.038;14.612;2022-10-13T04:49:51;99101.50;;;10.33;100.00
21902;BME280;11115;46.038;14.612;2022-10-13T04:52:26;99105.97;;;10.29;100.00
21902;BME280;11115;46.038;14.612;2022-10-13T04:54:59;99104.31;;;10.28;100.00
21902;BME280;11115;46.038;14.612;2022-10-13T04:57:43;99107.25;;;10.37;100.00
21902;BME280;11115;46.038;14.612;2022-10-13T05:00:15;99108.06;;;10.43;100.00
21902;BME280;11115;46.038;14.612;2022-10-13T05:02:48;99101.44;;;10.39;100.00
21902;BME280;11115;46.038;14.612;2022-10-13T05:05:18;99106.56;;;10.26;100.00
21902;BME280;11115;46.038;14.612;2022-10-13T05:07:49;99104.56;;;10.32;100.00
21902;BME280;11115;46.038;14.612;2022-10-13T05:10:20;99106.59;;;10.21;100.00
21902;BME280;11115;46.038;14.612;2022-10-13T05:12:52;99117.09;;;10.24;100.00
21902;BME280;11115;46.038;14.612;2022-10-13T05:15:38;99113.78;;;10.17;100.00
21902;BME280;11115;46.038;14.612;2022-10-13T05:18:07;99116.44;;;10.32;100.00
21902;BME280;11115;46.038;14.612;2022-10-13T05:20:41;99127.22;;;10.34;100.00
21902;BME280;11115;46.038;14.612;2022-10-13T05:23:13;99123.56;;;10.39;100.00
21902;BME280;11115;46.038;14.612;2022-10-13T05:25:44;99125.91;;;10.26;100.00
21902;BME280;11115;46.038;14.612;2022-10-13T05:28:16;99129.50;;;10.27;100.00
21902;BME280;11115;46.038;14.612;2022-10-13T05:30:44;99127.31;;;10.19;100.00
21902;BME280;11115;46.038;14.612;2022-10-13T05:33:16;99128.97;;;10.25;100.00
21902;BME280;11115;46.038;14.612;2022-10-13T05:35:50;99125.56;;;10.33;100.00
21902;BME280;11115;46.038;14.612;2022-10-13T05:38:24;99109.91;;;10.23;100.00
21902;BME280;11115;46.038;14.612;2022-10-13T05:41:08;99127.63;;;10.22;100.00
21902;BME280;11115;46.038;14.612;2022-10-13T05:43:41;99133.56;;;10.34;100.00
21902;BME280;11115;46.038;14.612;2022-10-13T05:46:16;99125.28;;;10.34;100.00
21902;BME280;11115;46.038;14.612;2022-10-13T05:48:53;99137.44;;;10.33;100.00
21902;BME280;11115;46.038;14.612;2022-10-13T05:51:52;99132.28;;;10.22;100.00
21902;BME280;11115;46.038;14.612;2022-10-13T05:54:34;99137.56;;;10.23;100.00
21902;BME280;11115;46.038;14.612;2022-10-13T05:57:30;99133.03;;;10.32;100.00
21902;BME280;11115;46.038;14.612;2022-10-13T06:00:13;99126.22;;;10.25;100.00
21902;BME280;11115;46.038;14.612;2022-10-13T06:03:20;99124.25;;;10.20;100.00
21902;BME280;11115;46.038;14.612;2022-10-13T06:05:54;99142.31;;;10.13;100.00
21902;BME280;11115;46.038;14.612;2022-10-13T06:08:35;99145.50;;;10.30;100.00
21902;BME280;11115;46.038;14.612;2022-10-13T06:11:11;99150.00;;;10.21;100.00
21902;BME280;11115;46.038;14.612;2022-10-13T06:13:49;99152.16;;;10.29;100.00
21902;BME280;11115;46.038;14.612;2022-10-13T06:16:33;99157.41;;;10.30;100.00
21902;BME280;11115;46.038;14.612;2022-10-13T06:19:05;99152.50;;;10.22;100.00
21902;BME280;11115;46.038;14.612;2022-10-13T06:21:36;99153.53;;;9.92;100.00
21902;BME280;11115;46.038;14.612;2022-10-13T06:24:18;99154.31;;;10.03;100.00
21902;BME280;11115;46.038;14.612;2022-10-13T06:26:53;99107.44;;;9.83;100.00
21902;BME280;11115;46.038;14.612;2022-10-13T06:29:25;99117.69;;;9.82;100.00
21902;BME280;11115;46.038;14.612;2022-10-13T06:31:56;99158.97;;;10.02;100.00
21902;BME280;11115;46.038;14.612;2022-10-13T06:34:27;99138.84;;;9.97;100.00
21902;BME280;11115;46.038;14.612;2022-10-13T06:36:59;99151.53;;;10.03;100.00
21902;BME280;11115;46.038;14.612;2022-10-13T06:39:35;99154.44;;;10.17;100.00
21902;BME280;11115;46.038;14.612;2022-10-13T06:42:13;99159.13;;;10.21;100.00
21902;BME280;11115;46.038;14.612;2022-10-13T06:45:08;99138.19;;;10.10;100.00
21902;BME280;11115;46.038;14.612;2022-10-13T06:47:39;99154.44;;;10.17;100.00
21902;BME280;11115;46.038;14.612;2022-10-13T06:50:26;99124.03;;;10.17;100.00
21902;BME280;11115;46.038;14.612;2022-10-13T06:53:02;99145.66;;;10.10;100.00
21902;BME280;11115;46.038;14.612;2022-10-13T06:55:46;99145.59;;;9.81;100.00
21902;BME280;11115;46.038;14.612;2022-10-13T06:58:20;99150.16;;;10.00;100.00
21902;BME280;11115;46.038;14.612;2022-10-13T07:00:49;99144.66;;;9.95;100.00
21902;BME280;11115;46.038;14.612;2022-10-13T07:03:24;99135.19;;;10.07;100.00
21902;BME280;11115;46.038;14.612;2022-10-13T07:06:02;99137.66;;;10.08;100.00
21902;BME280;11115;46.038;14.612;2022-10-13T07:08:33;99149.25;;;10.10;100.00
21902;BME280;11115;46.038;14.612;2022-10-13T07:11:08;99151.19;;;10.10;100.00
21902;BME280;11115;46.038;14.612;2022-10-13T07:13:49;99148.09;;;10.16;100.00
21902;BME280;11115;46.038;14.612;2022-10-13T07:16:20;99152.78;;;10.21;100.00
21902;BME280;11115;46.038;14.612;2022-10-13T07:18:52;99132.22;;;9.98;100.00
21902;BME280;11115;46.038;14.612;2022-10-13T07:21:43;99137.81;;;10.22;100.00
21902;BME280;11115;46.038;14.612;2022-10-13T07:24:25;99135.78;;;10.03;100.00
21902;BME280;11115;46.038;14.612;2022-10-13T07:27:00;99131.56;;;10.11;100.00
21902;BME280;11115;46.038;14.612;2022-10-13T07:29:34;99135.72;;;10.09;100.00
21902;BME280;11115;46.038;14.612;2022-10-13T07:32:07;99132.03;;;10.18;100.00
21902;BME280;11115;46.038;14.612;2022-10-13T07:34:41;99128.69;;;10.26;100.00
21902;BME280;11115;46.038;14.612;2022-10-13T07:37:16;99139.31;;;10.43;100.00
21902;BME280;11115;46.038;14.612;2022-10-13T07:40:00;99111.03;;;10.22;100.00
21902;BME280;11115;46.038;14.612;2022-10-13T07:42:31;99138.63;;;10.27;100.00
21902;BME280;11115;46.038;14.612;2022-10-13T07:45:15;99137.75;;;10.32;100.00
21902;BME280;11115;46.038;14.612;2022-10-13T07:47:47;99121.50;;;10.25;100.00
21902;BME280;11115;46.038;14.612;2022-10-13T07:50:17;99114.78;;;10.31;100.00
21902;BME280;11115;46.038;14.612;2022-10-13T07:52:49;99139.53;;;10.47;100.00
21902;BME280;11115;46.038;14.612;2022-10-13T07:55:33;99129.06;;;10.44;100.00
21902;BME280;11115;46.038;14.612;2022-10-13T07:58:08;99141.59;;;10.60;100.00
21902;BME280;11115;46.038;14.612;2022-10-13T08:01:00;99132.97;;;10.67;100.00
21902;BME280;11115;46.038;14.612;2022-10-13T08:03:54;99144.91;;;10.62;100.00
21902;BME280;11115;46.038;14.612;2022-10-13T08:06:22;99142.03;;;10.72;100.00
21902;BME280;11115;46.038;14.612;2022-10-13T08:09:09;99145.84;;;10.76;100.00
21902;BME280;11115;46.038;14.612;2022-10-13T08:11:41;99138.81;;;10.60;100.00
21902;BME280;11115;46.038;14.612;2022-10-13T08:14:13;99143.38;;;10.75;100.00
21902;BME280;11115;46.038;14.612;2022-10-13T08:16:43;99130.31;;;10.80;100.00
21902;BME280;11115;46.038;14.612;2022-10-13T08:19:20;99142.16;;;10.86;100.00
21902;BME280;11115;46.038;14.612;2022-10-13T08:21:55;99135.31;;;10.78;100.00
21902;BME280;11115;46.038;14.612;2022-10-13T08:24:34;99128.38;;;10.81;100.00
21902;BME280;11115;46.038;14.612;2022-10-13T08:27:10;99126.00;;;10.69;100.00
21902;BME280;11115;46.038;14.612;2022-10-13T08:29:49;99111.78;;;10.81;100.00
21902;BME280;11115;46.038;14.612;2022-10-13T08:32:29;99113.28;;;10.92;100.00
21902;BME280;11115;46.038;14.612;2022-10-13T08:35:02;99109.16;;;10.89;100.00
21902;BME280;11115;46.038;14.612;2022-10-13T08:37:32;99111.28;;;11.16;100.00
21902;BME280;11115;46.038;14.612;2022-10-13T08:40:19;99107.94;;;11.19;100.00
21902;BME280;11115;46.038;14.612;2022-10-13T08:42:56;99111.47;;;11.25;100.00
21902;BME280;11115;46.038;14.612;2022-10-13T08:45:29;99115.63;;;11.04;100.00
21902;BME280;11115;46.038;14.612;2022-10-13T08:48:20;99110.41;;;11.02;100.00
21902;BME280;11115;46.038;14.612;2022-10-13T08:50:59;99112.06;;;11.22;100.00
21902;BME280;11115;46.038;14.612;2022-10-13T08:53:40;99110.44;;;11.21;100.00
21902;BME280;11115;46.038;14.612;2022-10-13T08:56:29;99118.44;;;11.41;100.00
21902;BME280;11115;46.038;14.612;2022-10-13T08:59:21;99111.25;;;11.59;100.00
21902;BME280;11115;46.038;14.612;2022-10-13T09:01:53;99100.59;;;11.10;100.00
21902;BME280;11115;46.038;14.612;2022-10-13T09:04:49;99114.00;;;11.03;100.00
21902;BME280;11115;46.038;14.612;2022-10-13T09:07:31;99105.94;;;11.25;100.00
21902;BME280;11115;46.038;14.612;2022-10-13T09:10:06;99119.56;;;11.40;100.00
21902;BME280;11115;46.038;14.612;2022-10-13T09:12:38;99113.78;;;11.55;100.00
21902;BME280;11115;46.038;14.612;2022-10-13T09:15:20;99119.06;;;11.38;100.00
21902;BME280;11115;46.038;14.612;2022-10-13T09:18:11;99104.00;;;11.44;100.00
21902;BME280;11115;46.038;14.612;2022-10-13T09:20:46;99102.34;;;11.81;100.00
21902;BME280;11115;46.038;14.612;2022-10-13T09:23:21;99093.72;;;11.82;100.00
21902;BME280;11115;46.038;14.612;2022-10-13T09:25:51;99104.63;;;11.93;100.00
21902;BME280;11115;46.038;14.612;2022-10-13T09:28:34;99100.91;;;11.83;100.00
21902;BME280;11115;46.038;14.612;2022-10-13T09:31:27;99097.63;;;11.81;100.00
21902;BME280;11115;46.038;14.612;2022-10-13T09:34:25;99099.03;;;11.98;100.00
21902;BME280;11115;46.038;14.612;2022-10-13T09:37:17;99101.81;;;12.11;100.00
21902;BME280;11115;46.038;14.612;2022-10-13T09:40:11;99099.66;;;12.08;100.00
21902;BME280;11115;46.038;14.612;2022-10-13T09:42:50;99100.16;;;12.10;100.00
21902;BME280;11115;46.038;14.612;2022-10-13T09:45:24;99105.91;;;12.00;100.00
21902;BME280;11115;46.038;14.612;2022-10-13T09:48:05;99070.84;;;11.72;100.00
21902;BME280;11115;46.038;14.612;2022-10-13T09:50:36;99093.59;;;12.06;100.00
21902;BME280;11115;46.038;14.612;2022-10-13T09:53:39;99103.69;;;12.16;100.00
21902;BME280;11115;46.038;14.612;2022-10-13T09:56:36;99097.38;;;12.43;100.00
21902;BME280;11115;46.038;14.612;2022-10-13T09:59:23;99093.88;;;12.37;100.00
21902;BME280;11115;46.038;14.612;2022-10-13T10:05:24;99073.53;;;12.83;100.00
21902;BME280;11115;46.038;14.612;2022-10-13T10:08:05;99073.13;;;12.62;100.00
21902;BME280;11115;46.038;14.612;2022-10-13T10:10:40;99069.72;;;12.65;100.00
21902;BME280;11115;46.038;14.612;2022-10-13T10:13:10;99057.59;;;12.61;100.00
21902;BME280;11115;46.038;14.612;2022-10-13T10:18:54;99067.25;;;12.50;100.00
21902;BME280;11115;46.038;14.612;2022-10-13T10:21:43;99075.75;;;12.26;100.00
21902;BME280;11115;46.038;14.612;2022-10-13T10:24:20;99067.19;;;12.55;100.00
21902;BME280;11115;46.038;14.612;2022-10-13T10:27:00;99062.66;;;12.73;100.00
21902;BME280;11115;46.038;14.612;2022-10-13T10:32:57;99064.13;;;13.06;100.00
21902;BME280;11115;46.038;14.612;2022-10-13T10:35:56;99061.16;;;13.17;100.00
21902;BME280;11115;46.038;14.612;2022-10-13T10:41:49;99048.97;;;13.40;100.00
21902;BME280;11115;46.038;14.612;2022-10-13T10:44:36;99035.44;;;13.47;100.00
21902;BME280;11115;46.038;14.612;2022-10-13T10:47:33;99022.13;;;13.35;100.00
21902;BME280;11115;46.038;14.612;2022-10-13T10:50:07;99017.50;;;14.29;100.00
21902;BME280;11115;46.038;14.612;2022-10-13T11:02:14;98990.41;;;15.26;100.00
21902;BME280;11115;46.038;14.612;2022-10-13T11:04:52;98973.78;;;15.90;100.00
21902;BME280;11115;46.038;14.612;2022-10-13T11:07:54;98972.13;;;15.98;100.00
21902;BME280;11115;46.038;14.612;2022-10-13T11:10:31;98960.97;;;16.36;100.00
21902;BME280;11115;46.038;14.612;2022-10-13T11:13:17;98949.97;;;15.93;100.00
21902;BME280;11115;46.038;14.612;2022-10-13T11:15:51;98949.06;;;15.54;100.00
21902;BME280;11115;46.038;14.612;2022-10-13T11:31:47;98934.84;;;16.41;100.00
21902;BME280;11115;46.038;14.612;2022-10-13T11:34:28;98926.69;;;17.27;100.00
21902;BME280;11115;46.038;14.612;2022-10-13T11:37:00;98918.88;;;17.21;100.00
21902;BME280;11115;46.038;14.612;2022-10-13T11:39:58;98908.88;;;17.32;100.00
21902;BME280;11115;46.038;14.612;2022-10-13T11:42:54;98911.03;;;16.43;100.00
21902;BME280;11115;46.038;14.612;2022-10-13T11:45:54;98903.66;;;16.68;100.00
21902;BME280;11115;46.038;14.612;2022-10-13T11:54:42;98887.31;;;16.99;100.00
21902;BME280;11115;46.038;14.612;2022-10-13T11:57:25;98882.97;;;16.39;100.00
21902;BME280;11115;46.038;14.612;2022-10-13T12:00:01;98886.63;;;17.03;100.00
21902;BME280;11115;46.038;14.612;2022-10-13T12:02:51;98883.91;;;17.81;100.00
21902;BME280;11115;46.038;14.612;2022-10-13T12:05:29;98883.56;;;18.31;100.00
21902;BME280;11115;46.038;14.612;2022-10-13T12:08:03;98876.09;;;17.86;100.00
21902;BME280;11115;46.038;14.612;2022-10-13T12:10:36;98874.31;;;18.92;100.00
21902;BME280;11115;46.038;14.612;2022-10-13T12:13:20;98870.16;;;22.26;100.00
21902;BME280;11115;46.038;14.612;2022-10-13T12:15:57;98841.34;;;19.88;100.00
21902;BME280;11115;46.038;14.612;2022-10-13T12:18:31;98866.78;;;18.19;100.00
21902;BME280;11115;46.038;14.612;2022-10-13T12:21:27;98860.84;;;17.96;100.00
21902;BME280;11115;46.038;14.612;2022-10-13T12:24:07;98796.22;;;19.97;100.00
21902;BME280;11115;46.038;14.612;2022-10-13T12:26:38;98838.69;;;20.78;100.00
21902;BME280;11115;46.038;14.612;2022-10-13T12:29:14;98843.66;;;21.85;100.00
21902;BME280;11115;46.038;14.612;2022-10-13T12:31:49;98839.25;;;23.16;100.00
21902;BME280;11115;46.038;14.612;2022-10-13T12:34:29;98818.38;;;20.49;100.00
21902;BME280;11115;46.038;14.612;2022-10-13T12:37:31;98827.31;;;19.29;100.00
21902;BME280;11115;46.038;14.612;2022-10-13T12:40:05;98817.88;;;18.93;100.00
21902;BME280;11115;46.038;14.612;2022-10-13T12:42:44;98827.19;;;19.85;100.00
21902;BME280;11115;46.038;14.612;2022-10-13T12:45:33;98822.94;;;22.19;100.00
21902;BME280;11115;46.038;14.612;2022-10-13T12:48:36;98814.72;;;25.07;100.00
21902;BME280;11115;46.038;14.612;2022-10-13T12:51:18;98803.81;;;25.24;91.43
21902;BME280;11115;46.038;14.612;2022-10-13T12:53:53;98800.34;;;26.01;94.95
21902;BME280;11115;46.038;14.612;2022-10-13T12:56:30;98801.06;;;26.91;81.75
21902;BME280;11115;46.038;14.612;2022-10-13T12:59:16;98805.50;;;24.04;88.93
21902;BME280;11115;46.038;14.612;2022-10-13T13:02:20;98795.63;;;23.84;100.00
21902;BME280;11115;46.038;14.612;2022-10-13T13:04:53;98794.66;;;25.66;88.00
21902;BME280;11115;46.038;14.612;2022-10-13T13:07:36;98773.50;;;27.72;78.12
21902;BME280;11115;46.038;14.612;2022-10-13T13:12:39;98782.91;;;28.13;66.83
21902;BME280;11115;46.038;14.612;2022-10-13T13:15:31;98784.03;;;26.91;70.39
21902;BME280;11115;46.038;14.612;2022-10-13T13:18:33;98781.16;;;24.40;87.47
21902;BME280;11115;46.038;14.612;2022-10-13T13:21:18;98777.16;;;23.53;93.60
21902;BME280;11115;46.038;14.612;2022-10-13T13:23:50;98773.22;;;23.24;100.00
21902;BME280;11115;46.038;14.612;2022-10-13T13:26:22;98769.72;;;22.40;100.00
21902;BME280;11115;46.038;14.612;2022-10-13T13:28:58;98768.88;;;22.66;100.00
21902;BME280;11115;46.038;14.612;2022-10-13T13:31:26;98765.59;;;22.61;100.00
21902;BME280;11115;46.038;14.612;2022-10-13T13:33:58;98767.00;;;22.48;100.00
21902;BME280;11115;46.038;14.612;2022-10-13T13:36:30;98765.59;;;22.08;100.00
21902;BME280;11115;46.038;14.612;2022-10-13T13:39:14;98763.38;;;21.71;100.00
21902;BME280;11115;46.038;14.612;2022-10-13T13:41:48;98752.28;;;21.59;100.00
21902;BME280;11115;46.038;14.612;2022-10-13T13:44:20;98758.81;;;21.40;100.00
21902;BME280;11115;46.038;14.612;2022-10-13T13:46:56;98764.91;;;21.92;100.00
21902;BME280;11115;46.038;14.612;2022-10-13T13:49:26;98756.59;;;21.76;100.00
21902;BME280;11115;46.038;14.612;2022-10-13T13:52:06;98763.00;;;21.27;100.00
21902;BME280;11115;46.038;14.612;2022-10-13T13:54:37;98763.75;;;21.47;100.00
21902;BME280;11115;46.038;14.612;2022-10-13T13:57:15;98692.19;;;21.02;100.00
21902;BME280;11115;46.038;14.612;2022-10-13T13:59:50;98753.38;;;21.51;100.00
21902;BME280;11115;46.038;14.612;2022-10-13T14:02:24;98761.50;;;21.56;100.00
21902;BME280;11115;46.038;14.612;2022-10-13T14:04:57;98734.66;;;21.20;100.00
21902;BME280;11115;46.038;14.612;2022-10-13T14:07:29;98749.50;;;22.35;95.00
21902;BME280;11115;46.038;14.612;2022-10-13T14:10:07;98754.91;;;22.47;84.90
21902;BME280;11115;46.038;14.612;2022-10-13T14:12:39;98743.69;;;20.87;100.00
21902;BME280;11115;46.038;14.612;2022-10-13T14:15:08;98749.06;;;20.22;100.00
21902;BME280;11115;46.038;14.612;2022-10-13T14:17:40;98761.28;;;19.79;100.00
21902;BME280;11115;46.038;14.612;2022-10-13T14:20:11;98758.53;;;19.35;100.00
21902;BME280;11115;46.038;14.612;2022-10-13T14:22:56;98753.72;;;19.20;100.00
21902;BME280;11115;46.038;14.612;2022-10-13T14:25:27;98755.97;;;19.74;100.00
21902;BME280;11115;46.038;14.612;2022-10-13T14:28:11;98734.16;;;19.67;100.00
21902;BME280;11115;46.038;14.612;2022-10-13T14:30:46;98740.28;;;19.88;100.00
21902;BME280;11115;46.038;14.612;2022-10-13T14:33:17;98730.88;;;19.65;100.00
21902;BME280;11115;46.038;14.612;2022-10-13T14:36:04;98729.31;;;19.20;100.00
21902;BME280;11115;46.038;14.612;2022-10-13T14:38:40;98733.81;;;19.25;100.00
21902;BME280;11115;46.038;14.612;2022-10-13T14:41:25;98731.47;;;19.27;100.00
21902;BME280;11115;46.038;14.612;2022-10-13T14:43:56;98740.50;;;19.04;100.00
21902;BME280;11115;46.038;14.612;2022-10-13T14:46:28;98731.53;;;18.99;100.00
21902;BME280;11115;46.038;14.612;2022-10-13T14:48:59;98733.06;;;18.96;100.00
21902;BME280;11115;46.038;14.612;2022-10-13T14:51:30;98717.88;;;18.69;100.00
21902;BME280;11115;46.038;14.612;2022-10-13T14:54:03;98729.22;;;18.89;100.00